Arvada, Wyoming
Current Conditions -  °F | °C
As of 8:53 AM on Sunday 23 Nov 2014 (Local Time) from KBYG Reporting Station
Clear Clear  
Wind Chill: 23°   Ceiling: Unl
Heat Index: 35°   Visibility: 10mi
Dew Point: 12°   Wind: 23mph
Humidity: 39%   Direction: 320°NW
Pressure: 29.82"   Gusts: 38mph
Location:  44.65°N, 106.13°W
Report Text: KBYG 231553Z AUTO 32020G33KT 10SM CLR 02/M11 A2982 RMK AO2 PK WND 33036/1512 SLP105 T00171111 $
Loading
Personal Weather Stations






























Interactive Weather Map New forecast layout! Learn more

10-Day Weather Forecast

Advertisements
Track Severe Weather on mobile